createdAt,value
2022-12-14T00:00:16.150Z,98223.84
2022-12-14T00:05:19.938Z,98210.28
2022-12-14T00:10:22.528Z,98210.34
2022-12-14T00:15:25.207Z,98204.47
2022-12-14T00:20:28.083Z,98201.16
2022-12-14T00:25:31.008Z,98193.78
2022-12-14T00:30:33.721Z,98189.63
2022-12-14T00:35:36.291Z,98182.31
2022-12-14T00:40:39.470Z,98152.25
2022-12-14T00:45:44.940Z,98154.69
2022-12-14T00:50:49.413Z,98174.31
2022-12-14T00:55:52.450Z,98171.53
2022-12-14T01:01:07.206Z,98164.00
2022-12-14T01:06:20.863Z,98154.81
2022-12-14T01:11:23.428Z,98138.63
2022-12-14T01:16:25.966Z,98137.84
2022-12-14T01:21:29.636Z,98128.47
2022-12-14T01:26:36.600Z,98123.19
2022-12-14T01:31:39.348Z,98110.72
2022-12-14T01:36:42.020Z,98114.22
2022-12-14T01:41:47.532Z,98110.66
2022-12-14T01:47:13.261Z,98117.16
2022-12-14T01:52:28.056Z,98110.28
2022-12-14T01:57:45.169Z,98114.53
2022-12-14T02:03:21.060Z,98082.41
2022-12-14T02:08:25.425Z,98081.66
2022-12-14T02:13:38.311Z,98072.19
2022-12-14T02:18:41.025Z,98072.19
2022-12-14T02:24:06.595Z,98068.00
2022-12-14T02:29:53.056Z,98067.22
2022-12-14T02:35:02.381Z,98078.13
2022-12-14T02:40:13.511Z,98065.31
2022-12-14T02:45:31.314Z,98060.78
2022-12-14T02:51:02.582Z,98079.63
2022-12-14T02:56:10.467Z,98068.81
2022-12-14T03:01:15.976Z,98049.53
2022-12-14T03:06:30.645Z,98040.03
2022-12-14T03:12:02.948Z,98043.38
2022-12-14T03:17:17.619Z,98038.13
2022-12-14T03:22:28.989Z,98032.13
2022-12-14T03:27:36.045Z,98027.69
2022-12-14T03:32:46.497Z,97994.00
2022-12-14T03:37:58.698Z,98012.22
2022-12-14T03:43:15.355Z,98007.56
2022-12-14T03:49:00.073Z,98001.28
2022-12-14T03:54:15.241Z,97987.69
2022-12-14T03:59:27.516Z,98001.84
2022-12-14T04:05:01.098Z,98001.19
2022-12-14T04:10:31.722Z,98013.44
2022-12-14T04:15:55.140Z,98011.69
2022-12-14T04:21:17.009Z,98003.13
2022-12-14T04:26:22.962Z,97998.09
2022-12-14T04:31:30.677Z,97993.69
2022-12-14T04:36:59.017Z,97999.31
2022-12-14T04:42:05.025Z,97998.59
2022-12-14T04:47:11.150Z,97986.75
2022-12-14T04:52:19.966Z,98000.41
2022-12-14T04:57:36.555Z,97999.50
2022-12-14T05:03:07.073Z,98008.19
2022-12-14T05:08:54.130Z,97998.06
2022-12-14T05:14:00.738Z,97968.78
2022-12-14T05:19:09.771Z,98006.41
2022-12-14T05:24:12.308Z,97996.41
2022-12-14T05:29:17.001Z,97997.13
2022-12-14T05:34:19.667Z,97959.94
2022-12-14T05:39:22.214Z,97997.41
2022-12-14T05:44:24.762Z,97992.50
2022-12-14T05:49:27.342Z,97993.38
2022-12-14T05:54:29.868Z,97991.00
2022-12-14T05:59:32.947Z,97978.50
2022-12-14T06:04:35.619Z,97982.72
2022-12-14T06:09:38.523Z,97973.44
2022-12-14T06:14:41.143Z,97997.41
2022-12-14T06:19:49.616Z,98000.06
2022-12-14T06:24:52.995Z,97998.47
2022-12-14T06:29:55.735Z,98008.75
2022-12-14T06:34:58.275Z,97984.03
2022-12-14T06:40:00.858Z,98017.41
2022-12-14T06:45:03.525Z,98025.03
2022-12-14T06:50:06.694Z,98007.22
2022-12-14T06:55:09.354Z,98034.44
2022-12-14T07:00:12.333Z,98033.63
2022-12-14T07:05:15.524Z,98036.19
2022-12-14T07:10:18.151Z,97994.22
2022-12-14T07:15:20.762Z,98054.59
2022-12-14T07:20:23.229Z,98063.47
2022-12-14T07:25:25.859Z,98074.97
2022-12-14T07:30:28.554Z,98082.25
2022-12-14T07:35:31.234Z,98086.69
2022-12-14T07:40:34.507Z,98084.88
2022-12-14T07:45:37.050Z,98100.91
2022-12-14T07:50:39.645Z,98083.94
2022-12-14T07:55:42.282Z,98106.22
2022-12-14T08:00:45.239Z,98123.63
2022-12-14T08:05:47.806Z,98122.22
2022-12-14T08:10:50.377Z,98120.75
2022-12-14T08:15:53.058Z,98118.06
2022-12-14T08:20:55.647Z,98127.59
2022-12-14T08:26:00.518Z,98128.78
2022-12-14T08:31:12.687Z,98144.09
2022-12-14T08:36:18.398Z,98141.63
2022-12-14T08:41:21.601Z,98154.16
2022-12-14T08:46:30.947Z,98171.47
2022-12-14T08:51:37.559Z,98177.28
2022-12-14T08:56:40.284Z,98186.19
2022-12-14T09:01:43.605Z,98190.66
2022-12-14T09:06:46.464Z,98162.44
2022-12-14T09:11:48.968Z,98208.13
2022-12-14T09:16:51.637Z,98225.22
2022-12-14T09:21:54.287Z,98228.72
2022-12-14T09:27:00.834Z,98225.44
2022-12-14T09:32:03.543Z,98250.88
2022-12-14T09:37:08.830Z,98255.19
2022-12-14T09:42:38.395Z,98267.75
2022-12-14T09:47:46.407Z,98276.47
2022-12-14T09:52:52.331Z,98296.00
2022-12-14T09:58:06.740Z,98290.72
2022-12-14T10:03:46.819Z,98302.25
2022-12-14T10:09:03.116Z,98324.47
2022-12-14T10:14:44.553Z,98303.41
2022-12-14T10:19:56.345Z,98340.91
2022-12-14T10:25:16.968Z,98353.66
2022-12-14T10:30:21.333Z,98373.38
2022-12-14T10:35:38.798Z,98372.22
2022-12-14T10:40:49.606Z,98378.78
2022-12-14T10:46:12.012Z,98411.97
2022-12-14T10:51:27.690Z,98425.09
2022-12-14T10:56:33.926Z,98436.03
2022-12-14T11:01:36.780Z,98462.84
2022-12-14T11:06:39.668Z,98475.38
2022-12-14T11:11:43.206Z,98486.53
2022-12-14T11:16:45.796Z,98492.72
2022-12-14T11:21:50.448Z,98499.16
2022-12-14T11:26:59.196Z,98527.97
2022-12-14T11:32:03.113Z,98550.28
2022-12-14T11:37:14.170Z,98560.06
2022-12-14T11:42:19.315Z,98576.78
2022-12-14T11:47:24.572Z,98584.50
2022-12-14T11:52:41.892Z,98599.53
2022-12-14T11:57:53.369Z,98612.13
2022-12-14T12:02:59.833Z,98594.81
2022-12-14T12:08:03.258Z,98644.25
2022-12-14T12:13:16.670Z,98651.31
2022-12-14T12:18:35.505Z,98658.41
2022-12-14T12:23:49.964Z,98685.19
2022-12-14T12:29:01.879Z,98687.69
2022-12-14T12:34:15.226Z,98709.97
2022-12-14T12:39:24.108Z,98727.34
2022-12-14T12:44:39.254Z,98737.28
2022-12-14T12:49:41.805Z,98735.06
2022-12-14T12:55:07.109Z,98759.69
2022-12-14T13:00:27.082Z,98766.44
2022-12-14T13:05:48.527Z,98768.44
2022-12-14T13:11:24.478Z,98793.97
2022-12-14T13:16:37.146Z,98805.13
2022-12-14T13:21:49.651Z,98790.00
2022-12-14T13:27:15.286Z,98809.13
2022-12-14T13:32:49.764Z,98839.69
2022-12-14T13:38:13.268Z,98853.19
2022-12-14T13:43:28.314Z,98867.66
2022-12-14T13:48:38.000Z,98867.97
2022-12-14T13:53:48.228Z,98862.09
2022-12-14T13:58:55.226Z,98887.63
2022-12-14T14:04:16.036Z,98896.84
2022-12-14T14:09:33.803Z,98899.03
2022-12-14T14:14:51.821Z,98887.69
2022-12-14T14:19:56.480Z,98912.84
2022-12-14T14:25:12.480Z,98917.09
2022-12-14T14:30:27.303Z,98926.38
2022-12-14T14:35:39.221Z,98934.19
2022-12-14T14:41:15.610Z,98944.06
2022-12-14T14:46:20.849Z,98959.72
2022-12-14T14:51:26.748Z,98968.47
2022-12-14T14:56:40.050Z,98980.03
2022-12-14T15:02:01.587Z,98990.56
2022-12-14T15:07:07.591Z,98991.28
2022-12-14T15:12:33.952Z,99012.22
2022-12-14T15:17:36.992Z,99008.78
2022-12-14T15:22:43.512Z,99014.72
2022-12-14T15:27:48.408Z,99016.03
2022-12-14T15:32:59.288Z,99030.72
2022-12-14T15:38:04.469Z,99017.72
2022-12-14T15:43:18.902Z,99029.34
2022-12-14T15:48:30.168Z,99042.50
2022-12-14T15:53:53.498Z,99065.09
2022-12-14T15:59:01.500Z,99070.41
2022-12-14T16:04:12.433Z,99084.00
2022-12-14T16:09:24.675Z,99092.59
2022-12-14T16:14:30.094Z,99104.94
2022-12-14T16:19:57.309Z,99078.25
2022-12-14T16:25:01.459Z,99116.91
2022-12-14T16:30:18.075Z,99100.41
2022-12-14T16:35:23.820Z,99129.78
2022-12-14T16:40:41.653Z,99133.66
2022-12-14T16:45:46.081Z,99148.38
2022-12-14T16:51:17.934Z,99154.56
2022-12-14T16:56:26.011Z,99160.38
2022-12-14T17:01:47.158Z,99157.59
2022-12-14T17:06:55.417Z,99164.16
2022-12-14T17:12:00.459Z,99188.66
2022-12-14T17:17:04.320Z,99186.38
2022-12-14T17:22:18.212Z,99186.81
2022-12-14T17:27:22.399Z,99190.41
2022-12-14T17:32:30.259Z,99180.59
2022-12-14T17:37:36.393Z,99213.63
2022-12-14T17:42:41.013Z,99213.09
2022-12-14T17:47:43.736Z,99226.16
2022-12-14T17:52:47.196Z,99199.00
2022-12-14T17:57:50.924Z,99196.31
2022-12-14T18:02:53.750Z,99244.00
2022-12-14T18:07:56.555Z,99247.16
2022-12-14T18:13:01.792Z,99265.50
2022-12-14T18:18:05.383Z,99276.25
2022-12-14T18:23:18.124Z,99263.84
2022-12-14T18:28:21.820Z,99282.34
2022-12-14T18:33:27.438Z,99286.47
2022-12-14T18:38:30.363Z,99299.13
2022-12-14T18:43:34.343Z,99262.78
2022-12-14T18:48:41.867Z,99266.22
2022-12-14T18:53:44.468Z,99305.50
2022-12-14T18:58:47.598Z,99317.28
2022-12-14T19:03:50.735Z,99315.00
2022-12-14T19:08:53.868Z,99315.19
2022-12-14T19:13:56.743Z,99345.91
2022-12-14T19:19:00.737Z,99358.81
2022-12-14T19:24:03.464Z,99356.97
2022-12-14T19:29:06.175Z,99366.75
2022-12-14T19:34:09.820Z,99377.16
2022-12-14T19:39:12.543Z,99384.75
2022-12-14T19:44:15.185Z,99387.03
2022-12-14T19:49:17.957Z,99407.78
2022-12-14T19:54:20.541Z,99411.78
2022-12-14T19:59:23.530Z,99421.91
2022-12-14T20:04:26.769Z,99413.84
2022-12-14T20:09:29.391Z,99431.72
2022-12-14T20:14:32.137Z,99433.44
2022-12-14T20:19:35.439Z,99446.94
2022-12-14T20:24:38.762Z,99463.59
2022-12-14T20:29:41.677Z,99475.16
2022-12-14T20:34:45.175Z,99478.56
2022-12-14T20:39:47.757Z,99479.56
2022-12-14T20:44:50.391Z,99476.38
2022-12-14T20:49:53.063Z,99493.34
2022-12-14T20:54:55.875Z,99477.25
2022-12-14T20:59:59.551Z,99508.19
2022-12-14T21:05:02.252Z,99519.63
2022-12-14T21:10:07.552Z,99517.53
2022-12-14T21:15:11.132Z,99504.03
2022-12-14T21:20:13.773Z,99523.22
2022-12-14T21:25:16.423Z,99525.81
2022-12-14T21:30:19.269Z,99543.06
2022-12-14T21:35:22.045Z,99556.69
2022-12-14T21:40:43.392Z,99551.69
2022-12-14T21:45:46.352Z,99555.41
2022-12-14T21:50:48.976Z,99549.84
2022-12-14T21:55:52.132Z,99557.53
2022-12-14T22:00:54.862Z,99556.03
2022-12-14T22:05:57.458Z,99571.16
2022-12-14T22:11:05.351Z,99567.88
2022-12-14T22:16:08.246Z,99578.59
2022-12-14T22:21:10.795Z,99587.41
2022-12-14T22:26:13.463Z,99583.03
2022-12-14T22:31:16.610Z,99600.47
2022-12-14T22:36:19.200Z,99601.13
2022-12-14T22:41:21.846Z,99603.94
2022-12-14T22:46:26.326Z,99609.16
2022-12-14T22:51:29.368Z,99617.97
2022-12-14T22:56:45.122Z,99624.38
2022-12-14T23:01:50.079Z,99615.94
2022-12-14T23:06:53.928Z,99626.91
2022-12-14T23:12:18.369Z,99638.34
2022-12-14T23:17:44.586Z,99637.31
2022-12-14T23:23:06.062Z,99641.22
2022-12-14T23:28:27.421Z,99651.72
2022-12-14T23:33:48.602Z,99616.25
2022-12-14T23:39:10.129Z,99641.00
2022-12-14T23:44:31.069Z,99663.56
2022-12-14T23:49:52.070Z,99651.69
2022-12-14T23:55:13.323Z,99661.94
